Keith, Illinois
Current Conditions -  °F | °C
As of 10:15 AM on Tuesday 21 Oct 2014 (Local Time) from KFOA Reporting Station
Clear Clear  
Wind Chill: 14°   Ceiling: Unl
Heat Index: 14°   Visibility: 10mi
Dew Point:   Wind: 8mph
Humidity: 67%   Direction: 30°NNE
Pressure: 30.12"   Gusts: NA
Location:  38.5816°N, 88.4678°W
Report Text: KFOA 211515Z AUTO 03007KT 10SM CLR 14/08 A3012 RMK AO2 T01390079
Loading
Personal Weather Stations






























Interactive Weather Map
Tropical Storm Tracking
New forecast layout! Learn more

10-Day Weather Forecast

Advertisements
Track Severe Weather on mobile